createdAt,value
2022-11-16T00:11:10.226Z,11.4
2022-11-16T00:25:38.704Z,11.4
2022-11-16T00:40:06.740Z,11.4
2022-11-16T00:54:34.419Z,11.4
2022-11-16T01:09:02.708Z,11.4
2022-11-16T01:23:31.962Z,11.4
2022-11-16T01:38:00.356Z,11.5
2022-11-16T01:52:27.631Z,11.5
2022-11-16T02:06:56.107Z,11.6
2022-11-16T02:21:24.501Z,11.6
2022-11-16T02:35:52.790Z,11.6
2022-11-16T02:50:20.209Z,11.6
2022-11-16T03:04:48.124Z,11.6
2022-11-16T03:19:16.141Z,11.6
2022-11-16T03:33:41.978Z,11.7
2022-11-16T03:48:12.210Z,11.5
2022-11-16T04:02:38.391Z,11.5
2022-11-16T04:17:06.306Z,11.5
2022-11-16T04:31:34.566Z,11.5
2022-11-16T04:46:03.140Z,11.5
2022-11-16T05:00:30.125Z,11.4
2022-11-16T05:14:57.822Z,11.3
2022-11-16T05:29:25.923Z,11.4
2022-11-16T05:43:54.540Z,11.5
2022-11-16T05:58:23.568Z,11.3
2022-11-16T06:12:51.089Z,11.3
2022-11-16T06:27:19.279Z,11.3
2022-11-16T06:41:46.422Z,11.1
2022-11-16T06:56:16.056Z,11.4
2022-11-16T07:10:43.384Z,11.3
2022-11-16T07:25:11.102Z,11.3
2022-11-16T07:39:40.345Z,11.2
2022-11-16T07:54:08.314Z,11.2
2022-11-16T08:08:36.280Z,11
2022-11-16T08:23:06.303Z,11.1
2022-11-16T08:37:33.375Z,10.9
2022-11-16T08:51:59.799Z,11.1
2022-11-16T09:06:32.366Z,12.8
2022-11-16T09:21:01.595Z,12
2022-11-16T09:35:26.510Z,11.7
2022-11-16T09:49:56.980Z,11.4
2022-11-16T10:04:26.495Z,11.7
2022-11-16T10:18:53.655Z,11.7
2022-11-16T10:33:22.509Z,11.9
2022-11-16T10:47:50.298Z,11.8
2022-11-16T11:02:19.090Z,11.9
2022-11-16T11:16:45.053Z,12.2
2022-11-16T11:31:13.451Z,12.3
2022-11-16T11:45:40.417Z,12.6
2022-11-16T12:00:08.812Z,12.7
2022-11-16T12:14:40.473Z,12.8
2022-11-16T12:29:07.756Z,13.1
2022-11-16T12:43:35.927Z,13
2022-11-16T12:58:02.512Z,12.9
2022-11-16T13:12:30.404Z,13
2022-11-16T13:27:00.559Z,13
2022-11-16T13:41:27.128Z,13
2022-11-16T13:55:53.761Z,12.9
2022-11-16T14:10:21.998Z,12.8
2022-11-16T14:24:50.579Z,13.1
2022-11-16T14:39:19.460Z,12.6
2022-11-16T14:53:44.415Z,12
2022-11-16T15:08:11.648Z,12.1
2022-11-16T15:22:39.671Z,12
2022-11-16T15:37:07.840Z,12.1
2022-11-16T15:51:35.613Z,12.1
2022-11-16T16:06:03.603Z,11.8
2022-11-16T16:20:31.798Z,11.7
2022-11-16T16:34:58.774Z,11.7
2022-11-16T16:49:27.934Z,11.7
2022-11-16T17:03:55.825Z,11.6
2022-11-16T17:18:28.979Z,11.6
2022-11-16T17:32:52.258Z,11.4
2022-11-16T17:47:22.000Z,11.2
2022-11-16T18:01:49.940Z,11.2
2022-11-16T18:16:17.682Z,11
2022-11-16T18:30:44.245Z,10.6
2022-11-16T18:45:11.389Z,10.4
2022-11-16T18:59:40.187Z,10.6
2022-11-16T19:14:07.757Z,10.5
2022-11-16T19:28:36.147Z,10.4
2022-11-16T19:43:04.304Z,10.3
2022-11-16T19:57:32.047Z,10.1
2022-11-16T20:12:00.103Z,10.3
2022-11-16T20:26:28.907Z,10.4
2022-11-16T20:40:57.231Z,10.4
2022-11-16T20:55:25.270Z,10.5
2022-11-16T21:09:52.810Z,10.6
2022-11-16T21:24:19.697Z,10.6
2022-11-16T21:38:47.421Z,10.6
2022-11-16T21:53:15.705Z,10.7
2022-11-16T22:07:43.807Z,10.7
2022-11-16T22:22:12.495Z,10.7
2022-11-16T22:36:39.918Z,10.7
2022-11-16T22:51:08.547Z,10.7
2022-11-16T23:05:36.209Z,10.6
2022-11-16T23:20:04.057Z,10.5
2022-11-16T23:34:30.352Z,10.4
2022-11-16T23:48:59.844Z,10.4
